createdAt,value
2019-02-07T00:01:50.174Z,11.97
2019-02-07T00:04:16.608Z,10.77
2019-02-07T00:06:42.866Z,11.27
2019-02-07T00:09:09.880Z,12.37
2019-02-07T00:11:36.285Z,12.43
2019-02-07T00:14:03.362Z,13.37
2019-02-07T00:16:29.794Z,11.87
2019-02-07T00:19:16.247Z,13.60
2019-02-07T00:21:42.852Z,12.27
2019-02-07T00:24:09.162Z,13.57
2019-02-07T00:26:35.595Z,13.53
2019-02-07T00:29:03.482Z,12.97
2019-02-07T00:31:30.724Z,13.20
2019-02-07T00:33:57.149Z,12.37
2019-02-07T00:36:23.479Z,12.53
2019-02-07T00:38:49.923Z,11.93
2019-02-07T00:41:16.229Z,14.40
2019-02-07T00:43:42.553Z,11.73
2019-02-07T00:46:09.234Z,13.03
2019-02-07T00:48:37.424Z,12.37
2019-02-07T00:51:03.714Z,12.83
2019-02-07T00:53:29.989Z,12.03
2019-02-07T00:55:56.597Z,12.50
2019-02-07T00:58:22.911Z,13.77
2019-02-07T01:00:49.338Z,12.30
2019-02-07T01:03:15.771Z,12.57
2019-02-07T01:05:42.573Z,12.30
2019-02-07T01:08:09.250Z,12.60
2019-02-07T01:10:35.888Z,13.10
2019-02-07T01:13:02.108Z,14.33
2019-02-07T01:15:29.113Z,12.83
2019-02-07T01:17:55.527Z,12.97
2019-02-07T01:20:22.031Z,13.47
2019-02-07T01:22:48.562Z,13.77
2019-02-07T01:25:17.591Z,13.33
2019-02-07T01:27:44.399Z,13.03
2019-02-07T01:30:18.211Z,12.97
2019-02-07T01:32:44.679Z,13.83
2019-02-07T01:35:11.589Z,11.87
2019-02-07T01:37:57.772Z,13.27
2019-02-07T01:40:24.112Z,14.07
2019-02-07T01:42:50.609Z,13.00
2019-02-07T01:45:19.841Z,14.47
2019-02-07T01:47:46.152Z,13.90
2019-02-07T01:50:17.865Z,12.70
2019-02-07T01:52:44.896Z,13.33
2019-02-07T01:55:12.002Z,13.33
2019-02-07T01:57:38.303Z,13.40
2019-02-07T02:00:11.542Z,13.80
2019-02-07T02:02:38.487Z,14.17
2019-02-07T02:05:06.920Z,13.73
2019-02-07T02:07:33.297Z,12.80
2019-02-07T02:10:00.300Z,14.33
2019-02-07T02:12:26.674Z,13.97
2019-02-07T02:14:52.967Z,13.90
2019-02-07T02:17:19.360Z,14.00
2019-02-07T02:19:45.655Z,14.10
2019-02-07T02:22:12.305Z,13.93
2019-02-07T02:24:38.668Z,13.83
2019-02-07T02:27:04.964Z,14.40
2019-02-07T02:29:31.703Z,14.00
2019-02-07T02:31:58.129Z,14.20
2019-02-07T02:34:24.431Z,14.07
2019-02-07T02:36:50.754Z,13.77
2019-02-07T02:39:17.024Z,13.97
2019-02-07T02:41:43.781Z,13.10
2019-02-07T02:44:10.314Z,13.97
2019-02-07T02:46:36.596Z,13.90
2019-02-07T02:49:03.368Z,12.93
2019-02-07T02:51:29.698Z,13.77
2019-02-07T02:53:57.800Z,12.90
2019-02-07T02:56:24.090Z,13.20
2019-02-07T02:58:52.180Z,13.43
2019-02-07T03:01:26.389Z,12.43
2019-02-07T03:04:06.951Z,12.43
2019-02-07T03:06:35.645Z,12.93
2019-02-07T03:09:06.363Z,13.33
2019-02-07T03:11:40.975Z,12.83
2019-02-07T03:14:09.474Z,12.53
2019-02-07T03:16:56.489Z,12.33
2019-02-07T03:19:27.841Z,11.70
2019-02-07T03:21:56.435Z,11.40
2019-02-07T03:24:43.336Z,11.83
2019-02-07T03:27:11.814Z,12.40
2019-02-07T03:29:46.044Z,12.60
2019-02-07T03:32:14.231Z,11.80
2019-02-07T03:34:57.633Z,12.37
2019-02-07T03:37:45.673Z,11.97
2019-02-07T03:40:17.531Z,11.93
2019-02-07T03:42:48.470Z,11.97
2019-02-07T03:45:33.434Z,12.07
2019-02-07T03:48:13.805Z,11.87
2019-02-07T03:50:54.380Z,12.10
2019-02-07T03:53:22.864Z,12.77
2019-02-07T03:55:52.837Z,12.23
2019-02-07T03:58:21.346Z,13.37
2019-02-07T04:00:52.406Z,12.77
2019-02-07T04:03:33.147Z,11.87
2019-02-07T04:06:04.923Z,12.77
2019-02-07T04:08:48.853Z,11.60
2019-02-07T04:11:33.874Z,11.20
2019-02-07T04:14:05.479Z,12.20
2019-02-07T04:16:39.787Z,12.57
2019-02-07T04:19:24.656Z,13.17
2019-02-07T04:21:59.310Z,13.10
2019-02-07T04:24:39.728Z,11.70
2019-02-07T04:27:13.853Z,12.50
2019-02-07T04:29:45.213Z,12.13
2019-02-07T04:32:16.241Z,11.30
2019-02-07T04:34:58.441Z,12.07
2019-02-07T04:37:26.591Z,12.27
2019-02-07T04:39:57.553Z,11.37
2019-02-07T04:42:43.844Z,11.60
2019-02-07T04:45:18.589Z,11.77
2019-02-07T04:47:55.866Z,11.70
2019-02-07T04:50:30.113Z,11.70
2019-02-07T04:52:59.260Z,11.60
2019-02-07T04:55:27.597Z,12.30
2019-02-07T04:57:58.492Z,10.87
2019-02-07T05:00:38.809Z,10.17
2019-02-07T05:03:06.987Z,10.07
2019-02-07T05:05:41.445Z,9.53
2019-02-07T05:08:09.752Z,9.67
2019-02-07T05:10:50.285Z,9.53
2019-02-07T05:13:35.285Z,8.83
2019-02-07T05:16:21.052Z,8.13
2019-02-07T05:19:06.313Z,7.80
2019-02-07T05:21:40.523Z,7.60
2019-02-07T05:24:15.092Z,7.83
2019-02-07T05:26:46.513Z,8.33
2019-02-07T05:29:14.878Z,7.80
2019-02-07T05:31:52.254Z,7.43
2019-02-07T05:34:35.801Z,7.33
2019-02-07T05:37:09.708Z,7.40
2019-02-07T05:39:50.191Z,7.00
2019-02-07T05:42:35.035Z,7.20
2019-02-07T05:45:09.466Z,6.10
2019-02-07T05:47:37.660Z,5.70
2019-02-07T05:50:10.556Z,5.60
2019-02-07T05:52:38.710Z,5.77
2019-02-07T05:55:25.325Z,6.27
2019-02-07T05:58:11.801Z,5.43
2019-02-07T06:00:57.192Z,5.27
2019-02-07T06:03:31.489Z,5.10
2019-02-07T06:05:59.707Z,4.70
2019-02-07T06:08:44.734Z,5.57
2019-02-07T06:11:13.278Z,4.40
2019-02-07T06:13:50.294Z,4.77
2019-02-07T06:16:18.504Z,5.00
2019-02-07T06:18:52.888Z,4.67
2019-02-07T06:21:24.029Z,4.50
2019-02-07T06:24:10.504Z,4.20
2019-02-07T06:26:44.747Z,4.50
2019-02-07T06:29:13.245Z,4.57
2019-02-07T06:31:41.440Z,4.77
2019-02-07T06:34:29.125Z,4.57
2019-02-07T06:37:05.707Z,4.63
2019-02-07T06:39:40.023Z,4.40
2019-02-07T06:42:20.180Z,3.90
2019-02-07T06:44:51.024Z,4.27
2019-02-07T06:47:19.205Z,4.60
2019-02-07T06:50:04.802Z,4.17
2019-02-07T06:52:39.291Z,4.43
2019-02-07T06:55:12.070Z,4.00
2019-02-07T06:57:42.301Z,3.63
2019-02-07T07:00:32.313Z,4.97
2019-02-07T07:03:06.308Z,3.43
2019-02-07T07:05:40.335Z,4.03
2019-02-07T07:08:11.668Z,4.40
2019-02-07T07:10:58.341Z,4.17
2019-02-07T07:13:29.254Z,3.93
2019-02-07T07:16:14.055Z,3.93
2019-02-07T07:19:02.081Z,3.80
2019-02-07T07:21:36.431Z,4.00
2019-02-07T07:24:22.006Z,3.40
2019-02-07T07:27:08.554Z,3.43
2019-02-07T07:29:36.748Z,3.60
2019-02-07T07:32:11.876Z,3.67
2019-02-07T07:34:43.154Z,3.43
2019-02-07T07:37:17.779Z,3.47
2019-02-07T07:39:46.051Z,3.40
2019-02-07T07:42:26.414Z,3.00
2019-02-07T07:45:04.578Z,3.17
2019-02-07T07:47:49.640Z,3.47
2019-02-07T07:50:18.223Z,3.70
2019-02-07T07:52:49.211Z,3.70
2019-02-07T07:55:17.343Z,3.50
2019-02-07T07:57:45.561Z,3.60
2019-02-07T08:00:30.125Z,3.83
2019-02-07T08:02:58.319Z,4.03
2019-02-07T08:05:29.537Z,4.00
2019-02-07T08:08:06.519Z,4.30
2019-02-07T08:10:37.764Z,4.27
2019-02-07T08:13:06.554Z,4.97
2019-02-07T08:15:43.903Z,4.30
2019-02-07T08:18:29.330Z,4.30
2019-02-07T08:21:12.879Z,4.90
2019-02-07T08:23:41.349Z,4.90
2019-02-07T08:26:09.637Z,4.10
2019-02-07T08:28:40.582Z,3.80
2019-02-07T08:31:09.126Z,4.50
2019-02-07T08:33:46.736Z,4.13
2019-02-07T08:36:31.789Z,3.93
2019-02-07T08:39:00.277Z,4.60
2019-02-07T08:41:31.839Z,4.30
2019-02-07T08:44:16.790Z,6.30
2019-02-07T08:46:48.188Z,5.63
2019-02-07T08:49:34.645Z,4.30
2019-02-07T08:52:02.834Z,4.23
2019-02-07T08:54:34.090Z,4.47
2019-02-07T08:57:05.011Z,4.53
2019-02-07T08:59:33.376Z,4.23
2019-02-07T09:02:04.315Z,3.80
2019-02-07T09:04:44.775Z,4.00
2019-02-07T09:07:15.916Z,4.80
2019-02-07T09:10:00.896Z,4.23
2019-02-07T09:12:41.244Z,5.47
2019-02-07T09:15:12.922Z,4.47
2019-02-07T09:17:41.086Z,4.60
2019-02-07T09:20:17.849Z,4.80
2019-02-07T09:22:49.094Z,4.63
2019-02-07T09:25:34.729Z,4.80
2019-02-07T09:28:09.196Z,4.27
2019-02-07T09:30:49.648Z,5.30
2019-02-07T09:33:26.663Z,5.37
2019-02-07T09:36:04.983Z,4.80
2019-02-07T09:38:52.580Z,4.97
2019-02-07T09:41:37.242Z,5.33
2019-02-07T09:44:14.733Z,5.27
2019-02-07T09:46:48.703Z,5.10
2019-02-07T09:49:32.185Z,4.93
2019-02-07T09:52:17.074Z,5.63
2019-02-07T09:54:45.242Z,4.73
2019-02-07T09:57:13.631Z,4.90
2019-02-07T09:59:47.619Z,5.67
2019-02-07T10:02:15.804Z,4.93
2019-02-07T10:05:01.681Z,4.70
2019-02-07T10:07:33.009Z,5.33
2019-02-07T10:10:01.206Z,5.17
2019-02-07T10:12:38.598Z,6.17
2019-02-07T10:15:24.809Z,5.70
2019-02-07T10:18:10.964Z,5.30
2019-02-07T10:20:39.070Z,5.33
2019-02-07T10:23:16.373Z,5.17
2019-02-07T10:25:44.905Z,5.10
2019-02-07T10:28:15.948Z,4.90
2019-02-07T10:30:49.848Z,4.73
2019-02-07T10:33:24.174Z,6.03
2019-02-07T10:36:04.248Z,4.83
2019-02-07T10:38:44.991Z,4.53
2019-02-07T10:41:13.423Z,4.83
2019-02-07T10:43:53.445Z,4.70
2019-02-07T10:46:40.994Z,4.80
2019-02-07T10:49:29.208Z,5.03
2019-02-07T10:51:57.343Z,5.23
2019-02-07T10:54:42.332Z,4.80
2019-02-07T10:57:13.295Z,5.33
2019-02-07T10:59:58.240Z,5.23
2019-02-07T11:02:29.699Z,5.33
2019-02-07T11:05:00.928Z,5.20
2019-02-07T11:07:44.437Z,5.00
2019-02-07T11:10:15.155Z,5.00
2019-02-07T11:13:01.460Z,4.77
2019-02-07T11:15:44.848Z,5.20
2019-02-07T11:18:19.043Z,5.17
2019-02-07T11:20:53.123Z,4.80
2019-02-07T11:23:24.618Z,4.37
2019-02-07T11:25:55.531Z,4.93
2019-02-07T11:28:23.731Z,5.40
2019-02-07T11:31:01.110Z,4.50
2019-02-07T11:33:46.509Z,4.67
2019-02-07T11:36:20.654Z,5.03
2019-02-07T11:39:07.150Z,5.50
2019-02-07T11:41:38.607Z,5.10
2019-02-07T11:44:09.778Z,4.30
2019-02-07T11:47:04.945Z,4.43
2019-02-07T11:49:30.624Z,4.70
2019-02-07T11:52:01.869Z,3.60
2019-02-07T11:54:30.052Z,5.73
2019-02-07T11:56:58.537Z,4.67
2019-02-07T11:59:26.800Z,5.23
2019-02-07T12:02:08.539Z,3.97
2019-02-07T12:04:28.265Z,4.27
2019-02-07T12:07:02.482Z,4.23
2019-02-07T12:09:36.575Z,3.90
2019-02-07T12:12:05.282Z,4.30
2019-02-07T12:14:50.244Z,4.27
2019-02-07T12:17:36.877Z,4.37
2019-02-07T12:20:20.656Z,4.00
2019-02-07T12:22:49.478Z,4.17
2019-02-07T12:25:23.639Z,3.77
2019-02-07T12:28:06.996Z,3.77
2019-02-07T12:30:51.992Z,4.00
2019-02-07T12:33:20.166Z,3.40
2019-02-07T12:36:05.163Z,4.07
2019-02-07T12:38:36.170Z,3.97
2019-02-07T12:41:22.879Z,3.10
2019-02-07T12:44:03.339Z,3.67
2019-02-07T12:46:37.760Z,4.47
2019-02-07T12:49:29.372Z,3.37
2019-02-07T12:51:54.091Z,3.60
2019-02-07T12:54:28.290Z,4.90
2019-02-07T12:56:56.800Z,3.53
2019-02-07T12:59:27.717Z,4.50
2019-02-07T13:02:06.861Z,3.87
2019-02-07T13:04:44.034Z,3.53
2019-02-07T13:07:12.342Z,3.50
2019-02-07T13:09:43.854Z,3.80
2019-02-07T13:12:21.047Z,4.00
2019-02-07T13:14:51.946Z,3.33
2019-02-07T13:17:37.066Z,4.20
2019-02-07T13:20:27.542Z,3.67
2019-02-07T13:23:01.676Z,3.90
2019-02-07T13:25:38.945Z,3.50
2019-02-07T13:28:10.116Z,3.50
2019-02-07T13:30:55.108Z,3.03
2019-02-07T13:33:23.327Z,3.23
2019-02-07T13:35:56.014Z,3.37
2019-02-07T13:38:27.038Z,3.07
2019-02-07T13:41:12.062Z,3.00
2019-02-07T13:43:56.811Z,3.63
2019-02-07T13:46:41.746Z,4.30
2019-02-07T13:49:09.942Z,3.73
2019-02-07T13:51:50.890Z,3.73
2019-02-07T13:54:22.363Z,2.90
2019-02-07T13:56:50.868Z,3.07
2019-02-07T13:59:19.062Z,3.53
2019-02-07T14:02:04.281Z,2.90
2019-02-07T14:04:41.580Z,2.87
2019-02-07T14:07:10.075Z,3.43
2019-02-07T14:09:38.316Z,3.20
2019-02-07T14:12:07.420Z,2.93
2019-02-07T14:14:50.432Z,2.70
2019-02-07T14:17:37.038Z,2.70
2019-02-07T14:20:08.884Z,2.80
2019-02-07T14:22:53.970Z,2.57
2019-02-07T14:25:40.367Z,3.10
2019-02-07T14:28:08.642Z,3.33
2019-02-07T14:30:36.830Z,2.97
2019-02-07T14:33:05.295Z,2.90
2019-02-07T14:35:33.570Z,2.50
2019-02-07T14:38:14.343Z,2.77
2019-02-07T14:40:59.070Z,2.83
2019-02-07T14:43:27.294Z,3.20
2019-02-07T14:45:55.516Z,3.57
2019-02-07T14:48:22.921Z,3.40
2019-02-07T14:50:49.645Z,2.60
2019-02-07T14:53:15.949Z,3.10
2019-02-07T14:55:42.306Z,2.47
2019-02-07T14:58:08.739Z,2.70
2019-02-07T15:00:35.378Z,3.10
2019-02-07T15:03:01.706Z,2.20
2019-02-07T15:05:28.170Z,2.90
2019-02-07T15:07:54.468Z,2.30
2019-02-07T15:10:21.006Z,2.50
2019-02-07T15:12:48.051Z,3.03
2019-02-07T15:15:17.556Z,2.80
2019-02-07T15:17:43.805Z,2.20
2019-02-07T15:20:29.962Z,2.40
2019-02-07T15:23:16.444Z,2.70
2019-02-07T15:25:44.636Z,2.30
2019-02-07T15:28:11.088Z,2.30
2019-02-07T15:30:37.419Z,2.50
2019-02-07T15:33:03.830Z,2.53
2019-02-07T15:35:33.663Z,2.30
2019-02-07T15:38:00.300Z,3.07
2019-02-07T15:40:27.154Z,2.47
2019-02-07T15:42:54.229Z,2.87
2019-02-07T15:45:20.934Z,2.03
2019-02-07T15:47:47.704Z,2.67
2019-02-07T15:50:19.737Z,2.13
2019-02-07T15:52:46.065Z,2.20
2019-02-07T15:55:13.210Z,2.63
2019-02-07T15:57:39.544Z,2.70
2019-02-07T16:00:14.476Z,2.40
2019-02-07T16:02:40.913Z,2.43
2019-02-07T16:05:10.228Z,2.80
2019-02-07T16:07:37.414Z,2.70
2019-02-07T16:10:08.195Z,3.33
2019-02-07T16:12:34.603Z,2.40
2019-02-07T16:15:01.060Z,3.03
2019-02-07T16:17:27.429Z,2.47
2019-02-07T16:19:53.825Z,2.63
2019-02-07T16:22:20.260Z,3.07
2019-02-07T16:24:48.123Z,3.00
2019-02-07T16:27:14.452Z,2.40
2019-02-07T16:29:40.784Z,2.23
2019-02-07T16:32:07.485Z,2.73
2019-02-07T16:34:33.956Z,2.47
2019-02-07T16:37:00.399Z,2.40
2019-02-07T16:39:26.826Z,2.33
2019-02-07T16:41:53.328Z,3.20
2019-02-07T16:44:19.806Z,3.00
2019-02-07T16:46:46.747Z,2.67
2019-02-07T16:49:13.270Z,3.77
2019-02-07T16:51:39.527Z,2.37
2019-02-07T16:54:06.037Z,3.30
2019-02-07T16:56:32.318Z,2.47
2019-02-07T16:58:58.614Z,2.90
2019-02-07T17:01:25.027Z,2.50
2019-02-07T17:03:51.457Z,2.90
2019-02-07T17:06:17.933Z,2.67
2019-02-07T17:08:44.241Z,3.07
2019-02-07T17:11:10.537Z,3.40
2019-02-07T17:13:36.825Z,2.90
2019-02-07T17:16:03.949Z,3.20
2019-02-07T17:18:30.365Z,2.70
2019-02-07T17:20:56.700Z,3.33
2019-02-07T17:23:23.350Z,3.60
2019-02-07T17:25:49.970Z,3.17
2019-02-07T17:28:16.236Z,2.63
2019-02-07T17:30:42.631Z,2.60
2019-02-07T17:33:09.201Z,3.13
2019-02-07T17:35:35.502Z,2.93
2019-02-07T17:38:01.818Z,2.70
2019-02-07T17:40:28.263Z,3.53
2019-02-07T17:42:54.697Z,2.60
2019-02-07T17:45:30.131Z,2.63
2019-02-07T17:47:56.786Z,3.47
2019-02-07T17:50:26.316Z,3.07
2019-02-07T17:52:53.078Z,2.97
2019-02-07T17:55:21.904Z,3.30
2019-02-07T17:57:48.337Z,3.30
2019-02-07T18:00:25.138Z,2.90
2019-02-07T18:02:51.440Z,2.97
2019-02-07T18:05:19.753Z,2.80
2019-02-07T18:07:46.046Z,2.93
2019-02-07T18:10:12.478Z,2.77
2019-02-07T18:12:38.729Z,3.57
2019-02-07T18:15:07.738Z,3.10
2019-02-07T18:17:34.133Z,3.17
2019-02-07T18:20:00.620Z,3.87
2019-02-07T18:22:26.926Z,3.17
2019-02-07T18:24:53.328Z,2.87
2019-02-07T18:27:41.968Z,3.73
2019-02-07T18:30:14.108Z,2.90
2019-02-07T18:32:42.318Z,2.97
2019-02-07T18:35:08.959Z,3.13
2019-02-07T18:37:35.614Z,3.03
2019-02-07T18:40:05.338Z,3.20
2019-02-07T18:42:31.643Z,3.60
2019-02-07T18:44:57.932Z,4.13
2019-02-07T18:47:24.224Z,3.20
2019-02-07T18:49:50.623Z,3.17
2019-02-07T18:52:16.957Z,2.90
2019-02-07T18:54:43.287Z,3.47
2019-02-07T18:57:09.720Z,3.60
2019-02-07T18:59:35.986Z,3.17
2019-02-07T19:02:02.908Z,2.90
2019-02-07T19:04:29.326Z,3.00
2019-02-07T19:06:55.656Z,3.20
2019-02-07T19:09:21.986Z,3.23
2019-02-07T19:11:48.725Z,3.40
2019-02-07T19:14:15.594Z,3.20
2019-02-07T19:16:42.005Z,3.40
2019-02-07T19:19:08.663Z,3.20
2019-02-07T19:21:35.275Z,3.17
2019-02-07T19:24:01.864Z,3.60
2019-02-07T19:26:28.245Z,2.93
2019-02-07T19:28:54.901Z,3.13
2019-02-07T19:31:21.623Z,3.10
2019-02-07T19:33:56.012Z,2.73
2019-02-07T19:36:22.376Z,3.30
2019-02-07T19:38:48.598Z,3.50
2019-02-07T19:41:15.136Z,3.30
2019-02-07T19:43:41.773Z,3.30
2019-02-07T19:46:08.101Z,3.23
2019-02-07T19:48:34.539Z,4.33
2019-02-07T19:51:01.108Z,3.30
2019-02-07T19:53:27.826Z,3.50
2019-02-07T19:55:54.579Z,3.20
2019-02-07T19:58:20.980Z,3.47
2019-02-07T20:00:47.359Z,3.50
2019-02-07T20:03:13.744Z,3.20
2019-02-07T20:05:40.146Z,3.50
2019-02-07T20:08:06.938Z,3.63
2019-02-07T20:10:33.762Z,3.77
2019-02-07T20:13:00.089Z,2.90
2019-02-07T20:15:33.031Z,3.20
2019-02-07T20:18:00.125Z,3.10
2019-02-07T20:20:27.313Z,2.57
2019-02-07T20:22:53.968Z,2.63
2019-02-07T20:25:22.082Z,3.70
2019-02-07T20:27:48.411Z,3.40
2019-02-07T20:30:18.059Z,3.23
2019-02-07T20:32:44.452Z,3.33
2019-02-07T20:35:11.615Z,3.10
2019-02-07T20:37:38.140Z,4.00
2019-02-07T20:40:07.819Z,3.47
2019-02-07T20:42:34.114Z,3.63
2019-02-07T20:45:00.722Z,3.47
2019-02-07T20:47:27.144Z,4.10
2019-02-07T20:49:53.576Z,3.67
2019-02-07T20:52:22.747Z,3.20
2019-02-07T20:54:48.254Z,3.30
2019-02-07T20:57:14.616Z,3.47
2019-02-07T20:59:41.171Z,3.20
2019-02-07T21:02:07.686Z,3.23
2019-02-07T21:04:34.336Z,4.57
2019-02-07T21:07:01.010Z,3.37
2019-02-07T21:09:27.395Z,3.37
2019-02-07T21:11:53.928Z,3.40
2019-02-07T21:14:20.180Z,3.33
2019-02-07T21:16:46.688Z,3.50
2019-02-07T21:19:13.130Z,3.70
2019-02-07T21:21:39.455Z,3.03
2019-02-07T21:24:05.724Z,3.43
2019-02-07T21:26:32.114Z,3.40
2019-02-07T21:28:58.649Z,4.03
2019-02-07T21:31:25.007Z,3.67
2019-02-07T21:33:51.733Z,3.77
2019-02-07T21:36:18.155Z,3.43
2019-02-07T21:38:44.483Z,3.67
2019-02-07T21:41:10.814Z,3.80
2019-02-07T21:43:37.054Z,3.50
2019-02-07T21:46:03.986Z,3.20
2019-02-07T21:48:30.418Z,3.63
2019-02-07T21:50:57.076Z,2.93
2019-02-07T21:53:23.490Z,3.87
2019-02-07T21:55:49.807Z,3.13
2019-02-07T21:58:16.198Z,3.30
2019-02-07T22:00:44.630Z,3.70
2019-02-07T22:03:12.033Z,4.43
2019-02-07T22:05:38.822Z,4.07
2019-02-07T22:08:06.080Z,3.33
2019-02-07T22:10:32.730Z,3.40
2019-02-07T22:12:59.252Z,3.57
2019-02-07T22:15:26.811Z,3.23
2019-02-07T22:17:53.352Z,3.53
2019-02-07T22:20:24.635Z,3.83
2019-02-07T22:22:51.129Z,3.63
2019-02-07T22:25:19.160Z,3.07
2019-02-07T22:27:45.943Z,2.97
2019-02-07T22:30:16.005Z,3.07
2019-02-07T22:32:42.897Z,2.97
2019-02-07T22:35:09.626Z,3.47
2019-02-07T22:37:36.277Z,3.47
2019-02-07T22:40:06.397Z,3.43
2019-02-07T22:42:32.621Z,3.27
2019-02-07T22:44:59.302Z,3.50
2019-02-07T22:47:25.692Z,3.37
2019-02-07T22:49:52.022Z,3.27
2019-02-07T22:52:18.864Z,3.70
2019-02-07T22:54:45.399Z,3.00
2019-02-07T22:57:11.729Z,3.57
2019-02-07T22:59:37.953Z,2.80
2019-02-07T23:02:05.883Z,3.17
2019-02-07T23:04:32.260Z,2.77
2019-02-07T23:06:58.586Z,3.73
2019-02-07T23:09:25.021Z,2.93
2019-02-07T23:11:52.067Z,3.77
2019-02-07T23:14:18.502Z,2.90
2019-02-07T23:16:45.160Z,3.33
2019-02-07T23:19:11.775Z,3.97
2019-02-07T23:21:40.297Z,3.47
2019-02-07T23:24:06.988Z,3.37
2019-02-07T23:26:33.431Z,3.07
2019-02-07T23:28:59.968Z,3.43
2019-02-07T23:31:26.808Z,3.57
2019-02-07T23:33:53.251Z,3.40
2019-02-07T23:36:19.566Z,3.60
2019-02-07T23:38:45.848Z,3.17
2019-02-07T23:41:12.136Z,3.00
2019-02-07T23:43:45.699Z,3.30
2019-02-07T23:46:07.142Z,3.60
2019-02-07T23:48:33.542Z,3.23
2019-02-07T23:51:00.246Z,3.40
2019-02-07T23:53:27.391Z,4.03
2019-02-07T23:55:53.803Z,3.43
2019-02-07T23:58:20.087Z,3.60
